LIBP/PSR METAR and TAF weather

Enter ICAO airport designator
Station Type Date Time Source
LIBP METAR 2019/04/18 13:50 UTC NOAA

LIBP 181350Z 04009KT CAVOK 17/11 Q1024


Station Type Date Time Source
LIBP Decoded METAR 2019/04/18 13:50 UTC NOAA

Pescara, Italy (LIBP) 42-26N 014-12E 11M
Apr 18, 2019 - 09:50 AM EDT / 2019.04.18 1350 UTC
Wind: from the NE (040 degrees) at 10 MPH (9 KT):0
Visibility: greater than 7 mile(s):0
Temperature: 62 F (17 C)
Dew Point: 51 F (11 C)
Relative Humidity: 67%
Pressure (altimeter): 30.24 in. Hg (1024 hPa)
ob: LIBP 181350Z 04009KT CAVOK 17/11 Q1024
cycle: 14

Station Type Date Time Source
LIBP TAF 2019/04/18 12:21 UTC NOAA

TAF LIBP 181100Z 1812/1912 22006KT CAVOK
BECMG 1808/1810 03010KT
BECMG 1818/1820 VRB04KT

Example: see airport list